sensor_id;sensor_type;location;lat;lon;timestamp;P1;durP1;ratioP1;P2;durP2;ratioP2
16250;SDS011;8233;50.650;6.832;2022-07-29T00:00:52;0.00;;;0.00;;
16250;SDS011;8233;50.650;6.832;2022-07-29T00:03:18;0.00;;;0.00;;
16250;SDS011;8233;50.650;6.832;2022-07-29T00:05:44;0.00;;;0.00;;
16250;SDS011;8233;50.650;6.832;2022-07-29T00:08:10;0.00;;;0.00;;
16250;SDS011;8233;50.650;6.832;2022-07-29T00:10:37;0.00;;;0.00;;
16250;SDS011;8233;50.650;6.832;2022-07-29T00:13:03;0.00;;;0.00;;
16250;SDS011;8233;50.650;6.832;2022-07-29T00:15:29;0.00;;;0.00;;
16250;SDS011;8233;50.650;6.832;2022-07-29T00:17:55;0.00;;;0.00;;
16250;SDS011;8233;50.650;6.832;2022-07-29T00:20:21;0.00;;;0.00;;
16250;SDS011;8233;50.650;6.832;2022-07-29T00:22:47;0.00;;;0.00;;
16250;SDS011;8233;50.650;6.832;2022-07-29T00:25:13;0.00;;;0.00;;
16250;SDS011;8233;50.650;6.832;2022-07-29T00:27:39;0.00;;;0.00;;
16250;SDS011;8233;50.650;6.832;2022-07-29T00:30:06;0.00;;;0.00;;
16250;SDS011;8233;50.650;6.832;2022-07-29T00:32:32;0.00;;;0.00;;
16250;SDS011;8233;50.650;6.832;2022-07-29T00:34:58;0.00;;;0.00;;
16250;SDS011;8233;50.650;6.832;2022-07-29T00:37:43;0.00;;;0.00;;
16250;SDS011;8233;50.650;6.832;2022-07-29T00:40:09;0.00;;;0.00;;
16250;SDS011;8233;50.650;6.832;2022-07-29T00:42:42;0.00;;;0.00;;
16250;SDS011;8233;50.650;6.832;2022-07-29T00:45:09;0.00;;;0.00;;
16250;SDS011;8233;50.650;6.832;2022-07-29T00:47:35;0.00;;;0.00;;
16250;SDS011;8233;50.650;6.832;2022-07-29T00:50:01;0.00;;;0.00;;
16250;SDS011;8233;50.650;6.832;2022-07-29T00:52:27;0.00;;;0.00;;
16250;SDS011;8233;50.650;6.832;2022-07-29T00:54:53;0.00;;;0.00;;
16250;SDS011;8233;50.650;6.832;2022-07-29T00:57:19;0.00;;;0.00;;
16250;SDS011;8233;50.650;6.832;2022-07-29T00:59:45;0.00;;;0.00;;
16250;SDS011;8233;50.650;6.832;2022-07-29T01:02:12;0.00;;;0.00;;
16250;SDS011;8233;50.650;6.832;2022-07-29T01:04:38;0.00;;;0.00;;
16250;SDS011;8233;50.650;6.832;2022-07-29T01:07:04;0.00;;;0.00;;
16250;SDS011;8233;50.650;6.832;2022-07-29T01:09:33;0.00;;;0.00;;
16250;SDS011;8233;50.650;6.832;2022-07-29T01:12:00;0.00;;;0.00;;
16250;SDS011;8233;50.650;6.832;2022-07-29T01:14:26;0.00;;;0.00;;
16250;SDS011;8233;50.650;6.832;2022-07-29T01:17:03;0.00;;;0.00;;
16250;SDS011;8233;50.650;6.832;2022-07-29T01:25:05;0.00;;;0.00;;
16250;SDS011;8233;50.650;6.832;2022-07-29T01:30:14;0.00;;;0.00;;
16250;SDS011;8233;50.650;6.832;2022-07-29T01:32:40;0.00;;;0.00;;
16250;SDS011;8233;50.650;6.832;2022-07-29T01:37:39;0.00;;;0.00;;
16250;SDS011;8233;50.650;6.832;2022-07-29T01:40:14;0.00;;;0.00;;
16250;SDS011;8233;50.650;6.832;2022-07-29T01:42:43;0.00;;;0.00;;
16250;SDS011;8233;50.650;6.832;2022-07-29T01:47:56;0.00;;;0.00;;
16250;SDS011;8233;50.650;6.832;2022-07-29T01:50:27;0.00;;;0.00;;
16250;SDS011;8233;50.650;6.832;2022-07-29T01:52:56;0.00;;;0.00;;
16250;SDS011;8233;50.650;6.832;2022-07-29T01:55:22;0.00;;;0.00;;
16250;SDS011;8233;50.650;6.832;2022-07-29T01:57:50;0.00;;;0.00;;
16250;SDS011;8233;50.650;6.832;2022-07-29T02:00:16;0.00;;;0.00;;
16250;SDS011;8233;50.650;6.832;2022-07-29T02:02:43;0.00;;;0.00;;
16250;SDS011;8233;50.650;6.832;2022-07-29T02:05:10;0.00;;;0.00;;
16250;SDS011;8233;50.650;6.832;2022-07-29T02:07:40;0.00;;;0.00;;
16250;SDS011;8233;50.650;6.832;2022-07-29T02:10:06;0.00;;;0.00;;
16250;SDS011;8233;50.650;6.832;2022-07-29T02:12:33;0.00;;;0.00;;
16250;SDS011;8233;50.650;6.832;2022-07-29T02:15:01;0.00;;;0.00;;
16250;SDS011;8233;50.650;6.832;2022-07-29T02:17:31;0.00;;;0.00;;
16250;SDS011;8233;50.650;6.832;2022-07-29T02:20:00;0.00;;;0.00;;
16250;SDS011;8233;50.650;6.832;2022-07-29T02:22:28;0.00;;;0.00;;
16250;SDS011;8233;50.650;6.832;2022-07-29T02:24:55;0.00;;;0.00;;
16250;SDS011;8233;50.650;6.832;2022-07-29T02:27:21;0.00;;;0.00;;
16250;SDS011;8233;50.650;6.832;2022-07-29T02:29:48;0.00;;;0.00;;
16250;SDS011;8233;50.650;6.832;2022-07-29T02:32:14;0.00;;;0.00;;
16250;SDS011;8233;50.650;6.832;2022-07-29T02:34:41;0.00;;;0.00;;
16250;SDS011;8233;50.650;6.832;2022-07-29T02:37:09;0.00;;;0.00;;
16250;SDS011;8233;50.650;6.832;2022-07-29T02:39:35;0.00;;;0.00;;
16250;SDS011;8233;50.650;6.832;2022-07-29T02:42:03;0.00;;;0.00;;
16250;SDS011;8233;50.650;6.832;2022-07-29T02:44:31;0.00;;;0.00;;
16250;SDS011;8233;50.650;6.832;2022-07-29T02:47:04;0.00;;;0.00;;
16250;SDS011;8233;50.650;6.832;2022-07-29T02:49:51;0.00;;;0.00;;
16250;SDS011;8233;50.650;6.832;2022-07-29T02:52:19;0.00;;;0.00;;
16250;SDS011;8233;50.650;6.832;2022-07-29T03:04:31;0.00;;;0.00;;
16250;SDS011;8233;50.650;6.832;2022-07-29T03:06:58;0.00;;;0.00;;
16250;SDS011;8233;50.650;6.832;2022-07-29T03:09:25;0.00;;;0.00;;
16250;SDS011;8233;50.650;6.832;2022-07-29T03:11:51;0.00;;;0.00;;
16250;SDS011;8233;50.650;6.832;2022-07-29T03:14:19;0.00;;;0.00;;
16250;SDS011;8233;50.650;6.832;2022-07-29T03:16:45;0.00;;;0.00;;
16250;SDS011;8233;50.650;6.832;2022-07-29T03:19:12;0.00;;;0.00;;
16250;SDS011;8233;50.650;6.832;2022-07-29T03:21:38;0.00;;;0.00;;
16250;SDS011;8233;50.650;6.832;2022-07-29T03:24:04;0.00;;;0.00;;
16250;SDS011;8233;50.650;6.832;2022-07-29T03:26:30;0.00;;;0.00;;
16250;SDS011;8233;50.650;6.832;2022-07-29T03:28:56;0.00;;;0.00;;
16250;SDS011;8233;50.650;6.832;2022-07-29T03:31:23;0.00;;;0.00;;
16250;SDS011;8233;50.650;6.832;2022-07-29T03:33:49;0.00;;;0.00;;
16250;SDS011;8233;50.650;6.832;2022-07-29T03:36:15;0.00;;;0.00;;
16250;SDS011;8233;50.650;6.832;2022-07-29T03:38:41;0.00;;;0.00;;
16250;SDS011;8233;50.650;6.832;2022-07-29T03:41:09;0.00;;;0.00;;
16250;SDS011;8233;50.650;6.832;2022-07-29T03:43:37;0.00;;;0.00;;
16250;SDS011;8233;50.650;6.832;2022-07-29T03:46:04;0.00;;;0.00;;
16250;SDS011;8233;50.650;6.832;2022-07-29T03:48:33;0.00;;;0.00;;
16250;SDS011;8233;50.650;6.832;2022-07-29T03:51:00;0.00;;;0.00;;
16250;SDS011;8233;50.650;6.832;2022-07-29T03:53:26;0.00;;;0.00;;
16250;SDS011;8233;50.650;6.832;2022-07-29T03:55:54;0.00;;;0.00;;
16250;SDS011;8233;50.650;6.832;2022-07-29T03:58:24;0.00;;;0.00;;
16250;SDS011;8233;50.650;6.832;2022-07-29T04:00:51;0.00;;;0.00;;
16250;SDS011;8233;50.650;6.832;2022-07-29T04:03:18;0.00;;;0.00;;
16250;SDS011;8233;50.650;6.832;2022-07-29T04:05:44;0.00;;;0.00;;
16250;SDS011;8233;50.650;6.832;2022-07-29T04:08:10;0.00;;;0.00;;
16250;SDS011;8233;50.650;6.832;2022-07-29T04:10:39;0.00;;;0.00;;
16250;SDS011;8233;50.650;6.832;2022-07-29T04:13:05;0.00;;;0.00;;
16250;SDS011;8233;50.650;6.832;2022-07-29T04:15:31;0.00;;;0.00;;
16250;SDS011;8233;50.650;6.832;2022-07-29T04:17:58;0.00;;;0.00;;
16250;SDS011;8233;50.650;6.832;2022-07-29T04:20:24;0.00;;;0.00;;
16250;SDS011;8233;50.650;6.832;2022-07-29T04:22:50;0.00;;;0.00;;
16250;SDS011;8233;50.650;6.832;2022-07-29T04:25:16;0.00;;;0.00;;
16250;SDS011;8233;50.650;6.832;2022-07-29T04:27:42;0.00;;;0.00;;
16250;SDS011;8233;50.650;6.832;2022-07-29T04:30:25;0.10;;;0.10;;
16250;SDS011;8233;50.650;6.832;2022-07-29T04:32:51;0.00;;;0.00;;
16250;SDS011;8233;50.650;6.832;2022-07-29T04:35:17;0.00;;;0.00;;
16250;SDS011;8233;50.650;6.832;2022-07-29T04:37:43;0.00;;;0.00;;
16250;SDS011;8233;50.650;6.832;2022-07-29T04:40:09;0.00;;;0.00;;
16250;SDS011;8233;50.650;6.832;2022-07-29T04:42:36;0.00;;;0.00;;
16250;SDS011;8233;50.650;6.832;2022-07-29T04:45:03;0.00;;;0.00;;
16250;SDS011;8233;50.650;6.832;2022-07-29T04:47:29;0.00;;;0.00;;
16250;SDS011;8233;50.650;6.832;2022-07-29T04:49:55;0.00;;;0.00;;
16250;SDS011;8233;50.650;6.832;2022-07-29T04:52:21;0.00;;;0.00;;
16250;SDS011;8233;50.650;6.832;2022-07-29T04:54:47;0.00;;;0.00;;
16250;SDS011;8233;50.650;6.832;2022-07-29T04:57:13;0.00;;;0.00;;
16250;SDS011;8233;50.650;6.832;2022-07-29T04:59:40;0.00;;;0.00;;
16250;SDS011;8233;50.650;6.832;2022-07-29T05:02:06;0.00;;;0.00;;
16250;SDS011;8233;50.650;6.832;2022-07-29T05:04:32;0.00;;;0.00;;
16250;SDS011;8233;50.650;6.832;2022-07-29T05:06:58;0.00;;;0.00;;
16250;SDS011;8233;50.650;6.832;2022-07-29T05:09:24;0.00;;;0.00;;
16250;SDS011;8233;50.650;6.832;2022-07-29T05:11:50;0.00;;;0.00;;
16250;SDS011;8233;50.650;6.832;2022-07-29T05:14:16;0.00;;;0.00;;
16250;SDS011;8233;50.650;6.832;2022-07-29T05:16:42;0.00;;;0.00;;
16250;SDS011;8233;50.650;6.832;2022-07-29T05:19:08;0.00;;;0.00;;
16250;SDS011;8233;50.650;6.832;2022-07-29T05:21:34;0.00;;;0.00;;
16250;SDS011;8233;50.650;6.832;2022-07-29T05:24:00;0.00;;;0.00;;
16250;SDS011;8233;50.650;6.832;2022-07-29T05:26:27;0.00;;;0.00;;
16250;SDS011;8233;50.650;6.832;2022-07-29T05:28:53;0.00;;;0.00;;
16250;SDS011;8233;50.650;6.832;2022-07-29T05:31:19;0.00;;;0.00;;
16250;SDS011;8233;50.650;6.832;2022-07-29T05:33:45;0.00;;;0.00;;
16250;SDS011;8233;50.650;6.832;2022-07-29T05:36:12;0.00;;;0.00;;
16250;SDS011;8233;50.650;6.832;2022-07-29T05:38:38;0.00;;;0.00;;
16250;SDS011;8233;50.650;6.832;2022-07-29T05:41:04;0.00;;;0.00;;
16250;SDS011;8233;50.650;6.832;2022-07-29T05:43:30;0.00;;;0.00;;
16250;SDS011;8233;50.650;6.832;2022-07-29T05:45:57;0.00;;;0.00;;
16250;SDS011;8233;50.650;6.832;2022-07-29T05:48:23;0.00;;;0.00;;
16250;SDS011;8233;50.650;6.832;2022-07-29T05:50:49;0.00;;;0.00;;
16250;SDS011;8233;50.650;6.832;2022-07-29T05:53:15;0.00;;;0.00;;
16250;SDS011;8233;50.650;6.832;2022-07-29T05:55:41;0.00;;;0.00;;
16250;SDS011;8233;50.650;6.832;2022-07-29T05:58:07;0.00;;;0.00;;
16250;SDS011;8233;50.650;6.832;2022-07-29T06:00:33;0.00;;;0.00;;
16250;SDS011;8233;50.650;6.832;2022-07-29T06:02:59;0.00;;;0.00;;
16250;SDS011;8233;50.650;6.832;2022-07-29T06:05:26;0.00;;;0.00;;
16250;SDS011;8233;50.650;6.832;2022-07-29T06:07:52;0.00;;;0.00;;
16250;SDS011;8233;50.650;6.832;2022-07-29T06:10:18;0.00;;;0.00;;
16250;SDS011;8233;50.650;6.832;2022-07-29T06:12:44;0.00;;;0.00;;
16250;SDS011;8233;50.650;6.832;2022-07-29T06:15:10;0.00;;;0.00;;
16250;SDS011;8233;50.650;6.832;2022-07-29T06:17:36;0.00;;;0.00;;
16250;SDS011;8233;50.650;6.832;2022-07-29T06:20:03;0.00;;;0.00;;
16250;SDS011;8233;50.650;6.832;2022-07-29T06:22:29;0.00;;;0.00;;
16250;SDS011;8233;50.650;6.832;2022-07-29T06:24:55;0.00;;;0.00;;
16250;SDS011;8233;50.650;6.832;2022-07-29T06:27:21;0.00;;;0.00;;
16250;SDS011;8233;50.650;6.832;2022-07-29T06:29:47;0.00;;;0.00;;
16250;SDS011;8233;50.650;6.832;2022-07-29T06:32:13;0.00;;;0.00;;
16250;SDS011;8233;50.650;6.832;2022-07-29T06:34:40;0.00;;;0.00;;
16250;SDS011;8233;50.650;6.832;2022-07-29T06:37:09;0.00;;;0.00;;
16250;SDS011;8233;50.650;6.832;2022-07-29T06:39:35;0.00;;;0.00;;
16250;SDS011;8233;50.650;6.832;2022-07-29T06:42:01;0.00;;;0.00;;
16250;SDS011;8233;50.650;6.832;2022-07-29T06:44:27;0.00;;;0.00;;
16250;SDS011;8233;50.650;6.832;2022-07-29T06:46:54;0.00;;;0.00;;
16250;SDS011;8233;50.650;6.832;2022-07-29T06:49:20;0.00;;;0.00;;
16250;SDS011;8233;50.650;6.832;2022-07-29T06:51:48;0.00;;;0.00;;
16250;SDS011;8233;50.650;6.832;2022-07-29T06:54:17;0.00;;;0.00;;
16250;SDS011;8233;50.650;6.832;2022-07-29T06:56:43;0.00;;;0.00;;
16250;SDS011;8233;50.650;6.832;2022-07-29T06:59:10;0.00;;;0.00;;
16250;SDS011;8233;50.650;6.832;2022-07-29T07:01:36;0.00;;;0.00;;
16250;SDS011;8233;50.650;6.832;2022-07-29T07:04:03;0.00;;;0.00;;
16250;SDS011;8233;50.650;6.832;2022-07-29T07:06:29;0.00;;;0.00;;
16250;SDS011;8233;50.650;6.832;2022-07-29T07:08:55;0.00;;;0.00;;
16250;SDS011;8233;50.650;6.832;2022-07-29T07:11:21;0.00;;;0.00;;
16250;SDS011;8233;50.650;6.832;2022-07-29T07:13:47;0.00;;;0.00;;
16250;SDS011;8233;50.650;6.832;2022-07-29T07:16:13;0.00;;;0.00;;
16250;SDS011;8233;50.650;6.832;2022-07-29T07:18:39;0.00;;;0.00;;
16250;SDS011;8233;50.650;6.832;2022-07-29T07:21:05;0.00;;;0.00;;
16250;SDS011;8233;50.650;6.832;2022-07-29T07:23:31;0.00;;;0.00;;
16250;SDS011;8233;50.650;6.832;2022-07-29T07:25:57;0.00;;;0.00;;
16250;SDS011;8233;50.650;6.832;2022-07-29T07:28:23;0.00;;;0.00;;
16250;SDS011;8233;50.650;6.832;2022-07-29T07:30:49;0.00;;;0.00;;
16250;SDS011;8233;50.650;6.832;2022-07-29T07:33:16;0.00;;;0.00;;
16250;SDS011;8233;50.650;6.832;2022-07-29T07:35:42;0.00;;;0.00;;
16250;SDS011;8233;50.650;6.832;2022-07-29T07:38:09;0.00;;;0.00;;
16250;SDS011;8233;50.650;6.832;2022-07-29T07:40:35;0.00;;;0.00;;
16250;SDS011;8233;50.650;6.832;2022-07-29T07:43:02;0.00;;;0.00;;
16250;SDS011;8233;50.650;6.832;2022-07-29T07:45:28;0.00;;;0.00;;
16250;SDS011;8233;50.650;6.832;2022-07-29T07:48:01;0.00;;;0.00;;
16250;SDS011;8233;50.650;6.832;2022-07-29T07:50:27;0.00;;;0.00;;
16250;SDS011;8233;50.650;6.832;2022-07-29T07:52:54;0.00;;;0.00;;
16250;SDS011;8233;50.650;6.832;2022-07-29T07:55:22;0.00;;;0.00;;
16250;SDS011;8233;50.650;6.832;2022-07-29T07:57:49;0.00;;;0.00;;
16250;SDS011;8233;50.650;6.832;2022-07-29T08:00:15;0.00;;;0.00;;
16250;SDS011;8233;50.650;6.832;2022-07-29T08:02:41;0.00;;;0.00;;
16250;SDS011;8233;50.650;6.832;2022-07-29T08:05:08;0.00;;;0.00;;
16250;SDS011;8233;50.650;6.832;2022-07-29T08:07:34;0.00;;;0.00;;
16250;SDS011;8233;50.650;6.832;2022-07-29T08:10:00;0.00;;;0.00;;
16250;SDS011;8233;50.650;6.832;2022-07-29T08:12:27;0.00;;;0.00;;
16250;SDS011;8233;50.650;6.832;2022-07-29T08:14:53;0.00;;;0.00;;
16250;SDS011;8233;50.650;6.832;2022-07-29T08:17:19;0.00;;;0.00;;
16250;SDS011;8233;50.650;6.832;2022-07-29T08:19:45;0.00;;;0.00;;
16250;SDS011;8233;50.650;6.832;2022-07-29T08:22:13;0.00;;;0.00;;
16250;SDS011;8233;50.650;6.832;2022-07-29T08:24:39;0.00;;;0.00;;
16250;SDS011;8233;50.650;6.832;2022-07-29T08:27:08;0.00;;;0.00;;
16250;SDS011;8233;50.650;6.832;2022-07-29T08:29:35;0.00;;;0.00;;
16250;SDS011;8233;50.650;6.832;2022-07-29T08:32:01;0.00;;;0.00;;
16250;SDS011;8233;50.650;6.832;2022-07-29T08:34:27;0.00;;;0.00;;
16250;SDS011;8233;50.650;6.832;2022-07-29T08:36:54;0.10;;;0.10;;
16250;SDS011;8233;50.650;6.832;2022-07-29T08:39:20;0.20;;;0.20;;
16250;SDS011;8233;50.650;6.832;2022-07-29T08:41:47;0.20;;;0.20;;
16250;SDS011;8233;50.650;6.832;2022-07-29T08:44:15;0.20;;;0.20;;
16250;SDS011;8233;50.650;6.832;2022-07-29T08:46:42;0.20;;;0.20;;
16250;SDS011;8233;50.650;6.832;2022-07-29T08:49:08;0.17;;;0.17;;
16250;SDS011;8233;50.650;6.832;2022-07-29T08:51:34;0.10;;;0.10;;
16250;SDS011;8233;50.650;6.832;2022-07-29T08:54:02;0.10;;;0.10;;
16250;SDS011;8233;50.650;6.832;2022-07-29T08:56:28;0.10;;;0.10;;
16250;SDS011;8233;50.650;6.832;2022-07-29T08:58:54;0.10;;;0.10;;
16250;SDS011;8233;50.650;6.832;2022-07-29T09:01:24;0.00;;;0.00;;
16250;SDS011;8233;50.650;6.832;2022-07-29T09:03:51;0.10;;;0.10;;
16250;SDS011;8233;50.650;6.832;2022-07-29T09:06:20;0.10;;;0.10;;
16250;SDS011;8233;50.650;6.832;2022-07-29T09:08:47;0.20;;;0.20;;
16250;SDS011;8233;50.650;6.832;2022-07-29T09:11:13;0.20;;;0.20;;
16250;SDS011;8233;50.650;6.832;2022-07-29T09:13:40;0.22;;;0.22;;
16250;SDS011;8233;50.650;6.832;2022-07-29T09:16:06;0.30;;;0.30;;
16250;SDS011;8233;50.650;6.832;2022-07-29T09:18:39;0.30;;;0.30;;
16250;SDS011;8233;50.650;6.832;2022-07-29T09:21:07;0.40;;;0.40;;
16250;SDS011;8233;50.650;6.832;2022-07-29T09:26:31;0.40;;;0.40;;
16250;SDS011;8233;50.650;6.832;2022-07-29T09:28:58;0.30;;;0.30;;
16250;SDS011;8233;50.650;6.832;2022-07-29T09:31:34;0.30;;;0.30;;
16250;SDS011;8233;50.650;6.832;2022-07-29T09:34:02;0.30;;;0.30;;
16250;SDS011;8233;50.650;6.832;2022-07-29T09:36:28;0.30;;;0.30;;
16250;SDS011;8233;50.650;6.832;2022-07-29T09:39:01;0.40;;;0.40;;
16250;SDS011;8233;50.650;6.832;2022-07-29T09:41:28;0.30;;;0.30;;
16250;SDS011;8233;50.650;6.832;2022-07-29T09:43:58;0.30;;;0.30;;
16250;SDS011;8233;50.650;6.832;2022-07-29T09:46:24;0.40;;;0.40;;
16250;SDS011;8233;50.650;6.832;2022-07-29T09:51:34;0.68;;;0.68;;
16250;SDS011;8233;50.650;6.832;2022-07-29T09:54:00;0.75;;;0.75;;
16250;SDS011;8233;50.650;6.832;2022-07-29T09:56:41;0.80;;;0.80;;
16250;SDS011;8233;50.650;6.832;2022-07-29T09:59:08;0.93;;;0.93;;
16250;SDS011;8233;50.650;6.832;2022-07-29T10:01:36;0.90;;;0.90;;
16250;SDS011;8233;50.650;6.832;2022-07-29T10:04:03;0.90;;;0.90;;
16250;SDS011;8233;50.650;6.832;2022-07-29T10:06:29;0.98;;;0.98;;
16250;SDS011;8233;50.650;6.832;2022-07-29T10:09:06;1.17;;;1.17;;
16250;SDS011;8233;50.650;6.832;2022-07-29T10:11:33;1.38;;;1.38;;
16250;SDS011;8233;50.650;6.832;2022-07-29T10:13:59;1.10;;;1.10;;
16250;SDS011;8233;50.650;6.832;2022-07-29T10:16:27;1.10;;;1.10;;
16250;SDS011;8233;50.650;6.832;2022-07-29T10:18:57;1.20;;;1.20;;
16250;SDS011;8233;50.650;6.832;2022-07-29T10:21:27;1.00;;;1.00;;
16250;SDS011;8233;50.650;6.832;2022-07-29T10:23:53;0.90;;;0.90;;
16250;SDS011;8233;50.650;6.832;2022-07-29T10:26:20;0.90;;;0.90;;
16250;SDS011;8233;50.650;6.832;2022-07-29T10:28:46;1.02;;;1.02;;
16250;SDS011;8233;50.650;6.832;2022-07-29T10:31:15;1.05;;;1.05;;
16250;SDS011;8233;50.650;6.832;2022-07-29T10:36:42;1.00;;;1.00;;
16250;SDS011;8233;50.650;6.832;2022-07-29T10:42:23;0.80;;;0.80;;
16250;SDS011;8233;50.650;6.832;2022-07-29T10:44:50;0.60;;;0.60;;
16250;SDS011;8233;50.650;6.832;2022-07-29T10:47:23;0.55;;;0.55;;
16250;SDS011;8233;50.650;6.832;2022-07-29T10:49:56;0.60;;;0.60;;
16250;SDS011;8233;50.650;6.832;2022-07-29T10:52:23;0.50;;;0.50;;
16250;SDS011;8233;50.650;6.832;2022-07-29T10:54:52;0.50;;;0.50;;
16250;SDS011;8233;50.650;6.832;2022-07-29T11:07:31;0.30;;;0.30;;
16250;SDS011;8233;50.650;6.832;2022-07-29T11:18:13;0.20;;;0.20;;
16250;SDS011;8233;50.650;6.832;2022-07-29T11:22:58;0.10;;;0.10;;
16250;SDS011;8233;50.650;6.832;2022-07-29T11:25:24;0.10;;;0.10;;
16250;SDS011;8233;50.650;6.832;2022-07-29T11:27:51;0.10;;;0.10;;
16250;SDS011;8233;50.650;6.832;2022-07-29T11:30:18;0.10;;;0.10;;
16250;SDS011;8233;50.650;6.832;2022-07-29T11:32:44;0.10;;;0.10;;
16250;SDS011;8233;50.650;6.832;2022-07-29T11:35:16;0.10;;;0.10;;
16250;SDS011;8233;50.650;6.832;2022-07-29T11:37:42;0.10;;;0.10;;
16250;SDS011;8233;50.650;6.832;2022-07-29T11:40:10;0.20;;;0.20;;
16250;SDS011;8233;50.650;6.832;2022-07-29T11:42:37;0.20;;;0.20;;
16250;SDS011;8233;50.650;6.832;2022-07-29T11:47:34;0.20;;;0.20;;
16250;SDS011;8233;50.650;6.832;2022-07-29T11:50:02;0.20;;;0.20;;
16250;SDS011;8233;50.650;6.832;2022-07-29T11:52:38;0.20;;;0.20;;
16250;SDS011;8233;50.650;6.832;2022-07-29T11:55:10;0.13;;;0.13;;
16250;SDS011;8233;50.650;6.832;2022-07-29T11:57:38;0.10;;;0.10;;
16250;SDS011;8233;50.650;6.832;2022-07-29T12:00:11;0.10;;;0.10;;
16250;SDS011;8233;50.650;6.832;2022-07-29T12:02:43;0.10;;;0.10;;
16250;SDS011;8233;50.650;6.832;2022-07-29T12:05:09;0.10;;;0.10;;
16250;SDS011;8233;50.650;6.832;2022-07-29T12:07:36;0.00;;;0.00;;
16250;SDS011;8233;50.650;6.832;2022-07-29T12:10:03;0.10;;;0.10;;
16250;SDS011;8233;50.650;6.832;2022-07-29T12:12:29;0.00;;;0.00;;
16250;SDS011;8233;50.650;6.832;2022-07-29T12:14:55;0.00;;;0.00;;
16250;SDS011;8233;50.650;6.832;2022-07-29T12:17:30;0.00;;;0.00;;
16250;SDS011;8233;50.650;6.832;2022-07-29T12:19:57;0.00;;;0.00;;
16250;SDS011;8233;50.650;6.832;2022-07-29T12:22:27;0.00;;;0.00;;
16250;SDS011;8233;50.650;6.832;2022-07-29T12:24:54;0.00;;;0.00;;
16250;SDS011;8233;50.650;6.832;2022-07-29T12:27:20;0.10;;;0.10;;
16250;SDS011;8233;50.650;6.832;2022-07-29T12:29:56;0.03;;;0.03;;
16250;SDS011;8233;50.650;6.832;2022-07-29T12:33:09;0.00;;;0.00;;
16250;SDS011;8233;50.650;6.832;2022-07-29T12:35:15;0.00;;;0.00;;
16250;SDS011;8233;50.650;6.832;2022-07-29T12:37:43;0.00;;;0.00;;
16250;SDS011;8233;50.650;6.832;2022-07-29T12:40:11;0.10;;;0.10;;
16250;SDS011;8233;50.650;6.832;2022-07-29T12:42:37;0.00;;;0.00;;
16250;SDS011;8233;50.650;6.832;2022-07-29T12:47:30;0.00;;;0.00;;
16250;SDS011;8233;50.650;6.832;2022-07-29T12:50:12;0.00;;;0.00;;
16250;SDS011;8233;50.650;6.832;2022-07-29T12:52:43;0.00;;;0.00;;
16250;SDS011;8233;50.650;6.832;2022-07-29T12:55:10;0.00;;;0.00;;
16250;SDS011;8233;50.650;6.832;2022-07-29T12:57:46;0.00;;;0.00;;
16250;SDS011;8233;50.650;6.832;2022-07-29T13:00:13;0.00;;;0.00;;
16250;SDS011;8233;50.650;6.832;2022-07-29T13:02:40;0.00;;;0.00;;
16250;SDS011;8233;50.650;6.832;2022-07-29T13:05:07;0.00;;;0.00;;
16250;SDS011;8233;50.650;6.832;2022-07-29T13:07:34;0.00;;;0.00;;
16250;SDS011;8233;50.650;6.832;2022-07-29T13:10:14;0.00;;;0.00;;
16250;SDS011;8233;50.650;6.832;2022-07-29T13:13:23;0.00;;;0.00;;
16250;SDS011;8233;50.650;6.832;2022-07-29T13:15:30;0.03;;;0.03;;
16250;SDS011;8233;50.650;6.832;2022-07-29T13:17:57;0.00;;;0.00;;
16250;SDS011;8233;50.650;6.832;2022-07-29T13:20:23;0.00;;;0.00;;
16250;SDS011;8233;50.650;6.832;2022-07-29T13:22:50;0.00;;;0.00;;
16250;SDS011;8233;50.650;6.832;2022-07-29T13:25:23;0.10;;;0.10;;
16250;SDS011;8233;50.650;6.832;2022-07-29T13:27:49;0.00;;;0.00;;
16250;SDS011;8233;50.650;6.832;2022-07-29T13:30:15;0.00;;;0.00;;
16250;SDS011;8233;50.650;6.832;2022-07-29T13:32:41;0.00;;;0.00;;
16250;SDS011;8233;50.650;6.832;2022-07-29T13:35:08;0.10;;;0.10;;
16250;SDS011;8233;50.650;6.832;2022-07-29T13:37:35;0.00;;;0.00;;
16250;SDS011;8233;50.650;6.832;2022-07-29T13:40:03;0.00;;;0.00;;
16250;SDS011;8233;50.650;6.832;2022-07-29T13:42:30;0.00;;;0.00;;
16250;SDS011;8233;50.650;6.832;2022-07-29T13:44:57;0.00;;;0.00;;
16250;SDS011;8233;50.650;6.832;2022-07-29T13:47:23;0.00;;;0.00;;
16250;SDS011;8233;50.650;6.832;2022-07-29T13:49:49;0.00;;;0.00;;
16250;SDS011;8233;50.650;6.832;2022-07-29T13:52:15;0.00;;;0.00;;
16250;SDS011;8233;50.650;6.832;2022-07-29T13:54:42;0.00;;;0.00;;
16250;SDS011;8233;50.650;6.832;2022-07-29T13:57:08;0.00;;;0.00;;
16250;SDS011;8233;50.650;6.832;2022-07-29T13:59:41;0.00;;;0.00;;
16250;SDS011;8233;50.650;6.832;2022-07-29T14:02:07;0.00;;;0.00;;
16250;SDS011;8233;50.650;6.832;2022-07-29T14:04:34;0.00;;;0.00;;
16250;SDS011;8233;50.650;6.832;2022-07-29T14:07:01;0.00;;;0.00;;
16250;SDS011;8233;50.650;6.832;2022-07-29T14:09:27;0.00;;;0.00;;
16250;SDS011;8233;50.650;6.832;2022-07-29T14:11:53;0.00;;;0.00;;
16250;SDS011;8233;50.650;6.832;2022-07-29T14:14:19;0.00;;;0.00;;
16250;SDS011;8233;50.650;6.832;2022-07-29T14:16:46;0.00;;;0.00;;
16250;SDS011;8233;50.650;6.832;2022-07-29T14:19:12;0.00;;;0.00;;
16250;SDS011;8233;50.650;6.832;2022-07-29T14:21:38;0.00;;;0.00;;
16250;SDS011;8233;50.650;6.832;2022-07-29T14:24:05;0.00;;;0.00;;
16250;SDS011;8233;50.650;6.832;2022-07-29T14:26:31;0.00;;;0.00;;
16250;SDS011;8233;50.650;6.832;2022-07-29T14:28:57;0.00;;;0.00;;
16250;SDS011;8233;50.650;6.832;2022-07-29T14:31:23;0.00;;;0.00;;
16250;SDS011;8233;50.650;6.832;2022-07-29T14:33:49;0.00;;;0.00;;
16250;SDS011;8233;50.650;6.832;2022-07-29T14:36:16;0.00;;;0.00;;
16250;SDS011;8233;50.650;6.832;2022-07-29T14:38:42;0.00;;;0.00;;
16250;SDS011;8233;50.650;6.832;2022-07-29T14:41:08;0.00;;;0.00;;
16250;SDS011;8233;50.650;6.832;2022-07-29T14:43:34;0.00;;;0.00;;
16250;SDS011;8233;50.650;6.832;2022-07-29T14:46:01;0.00;;;0.00;;
16250;SDS011;8233;50.650;6.832;2022-07-29T14:48:27;0.00;;;0.00;;
16250;SDS011;8233;50.650;6.832;2022-07-29T14:50:53;0.00;;;0.00;;
16250;SDS011;8233;50.650;6.832;2022-07-29T14:53:21;0.00;;;0.00;;
16250;SDS011;8233;50.650;6.832;2022-07-29T14:55:47;0.00;;;0.00;;
16250;SDS011;8233;50.650;6.832;2022-07-29T14:58:13;0.00;;;0.00;;
16250;SDS011;8233;50.650;6.832;2022-07-29T15:00:39;0.08;;;0.08;;
16250;SDS011;8233;50.650;6.832;2022-07-29T15:03:05;0.00;;;0.00;;
16250;SDS011;8233;50.650;6.832;2022-07-29T15:05:34;0.00;;;0.00;;
16250;SDS011;8233;50.650;6.832;2022-07-29T15:08:00;0.00;;;0.00;;
16250;SDS011;8233;50.650;6.832;2022-07-29T15:10:26;0.00;;;0.00;;
16250;SDS011;8233;50.650;6.832;2022-07-29T15:12:53;0.00;;;0.00;;
16250;SDS011;8233;50.650;6.832;2022-07-29T15:15:19;0.00;;;0.00;;
16250;SDS011;8233;50.650;6.832;2022-07-29T15:17:45;0.00;;;0.00;;
16250;SDS011;8233;50.650;6.832;2022-07-29T15:20:11;0.00;;;0.00;;
16250;SDS011;8233;50.650;6.832;2022-07-29T15:22:38;0.00;;;0.00;;
16250;SDS011;8233;50.650;6.832;2022-07-29T15:25:06;0.00;;;0.00;;
16250;SDS011;8233;50.650;6.832;2022-07-29T15:27:35;0.00;;;0.00;;
16250;SDS011;8233;50.650;6.832;2022-07-29T15:30:01;0.00;;;0.00;;
16250;SDS011;8233;50.650;6.832;2022-07-29T15:32:28;0.00;;;0.00;;
16250;SDS011;8233;50.650;6.832;2022-07-29T15:34:54;0.00;;;0.00;;
16250;SDS011;8233;50.650;6.832;2022-07-29T15:37:20;0.00;;;0.00;;
16250;SDS011;8233;50.650;6.832;2022-07-29T15:39:46;0.00;;;0.00;;
16250;SDS011;8233;50.650;6.832;2022-07-29T15:42:12;0.00;;;0.00;;
16250;SDS011;8233;50.650;6.832;2022-07-29T15:44:38;0.00;;;0.00;;
16250;SDS011;8233;50.650;6.832;2022-07-29T15:47:04;0.00;;;0.00;;
16250;SDS011;8233;50.650;6.832;2022-07-29T15:49:34;0.00;;;0.00;;
16250;SDS011;8233;50.650;6.832;2022-07-29T15:52:01;0.00;;;0.00;;
16250;SDS011;8233;50.650;6.832;2022-07-29T15:54:28;0.00;;;0.00;;
16250;SDS011;8233;50.650;6.832;2022-07-29T15:56:54;0.00;;;0.00;;
16250;SDS011;8233;50.650;6.832;2022-07-29T15:59:20;0.00;;;0.00;;
16250;SDS011;8233;50.650;6.832;2022-07-29T16:01:47;0.00;;;0.00;;